THY7DP LTFM-LTBJ
Flight info
| Callsign | THY7DP |
|---|---|
| Flight time | 0h 46m |
| Altitude | 29000 |
| Route | IVGUS1E/36 IVGUS UM19 OVZOK |
| Aircraft | A321/M-SDE3FGHIRWY/LB1 |
Departure
| Time | 2026-05-06 18:06 |
|---|---|
| Airport | İstanbul Airport (LTFM) |
Arrival
| Time | 2026-05-06 18:52 |
|---|---|
| Airport | Adnan Menderes International Airport (LTBJ) |
| Time | Latitude | Longitude | Altitude | Speed | Heading |
|---|---|---|---|---|---|
| 2026-05-06 17:35 | 41.26036 | 28.74962 | 331 ft | 0 kts | 251° |
| 2026-05-06 17:58 | 41.26039 | 28.74974 | 332 ft | 4 kts | 251° |
| 2026-05-06 17:58 | 41.26047 | 28.75003 | 330 ft | 3 kts | 251° |
| 2026-05-06 17:58 | 41.26051 | 28.75035 | 330 ft | 4 kts | 284° |
| 2026-05-06 17:58 | 41.26039 | 28.75061 | 331 ft | 4 kts | 334° |
| 2026-05-06 17:59 | 41.26021 | 28.75071 | 333 ft | 0 kts | 341° |
| 2026-05-06 18:02 | 41.26035 | 28.75064 | 333 ft | 4 kts | 341° |
| 2026-05-06 18:02 | 41.26072 | 28.75047 | 332 ft | 7 kts | 341° |
| 2026-05-06 18:02 | 41.26130 | 28.75020 | 332 ft | 10 kts | 341° |
| 2026-05-06 18:02 | 41.26203 | 28.74993 | 334 ft | 12 kts | 353° |
| 2026-05-06 18:03 | 41.26240 | 28.75057 | 332 ft | 10 kts | 78° |
| 2026-05-06 18:03 | 41.26243 | 28.75152 | 334 ft | 11 kts | 88° |
| 2026-05-06 18:03 | 41.26245 | 28.75259 | 334 ft | 12 kts | 89° |
| 2026-05-06 18:03 | 41.26247 | 28.75348 | 334 ft | 7 kts | 89° |
| 2026-05-06 18:04 | 41.26247 | 28.75397 | 334 ft | 6 kts | 89° |
| 2026-05-06 18:04 | 41.26248 | 28.75459 | 334 ft | 7 kts | 89° |
| 2026-05-06 18:04 | 41.26249 | 28.75534 | 334 ft | 9 kts | 89° |
| 2026-05-06 18:04 | 41.26254 | 28.75629 | 330 ft | 11 kts | 71° |
| 2026-05-06 18:05 | 41.26320 | 28.75665 | 333 ft | 4 kts | 359° |
| 2026-05-06 18:05 | 41.26324 | 28.75665 | 334 ft | 5 kts | 359° |
| 2026-05-06 18:05 | 41.26603 | 28.75660 | 330 ft | 78 kts | 359° |
| 2026-05-06 18:05 | 41.27367 | 28.75646 | 334 ft | 142 kts | 359° |
| 2026-05-06 18:06 | 41.28501 | 28.75635 | 641 ft | 167 kts | 1° |
| 2026-05-06 18:06 | 41.29647 | 28.75671 | 1361 ft | 168 kts | 8° |
| 2026-05-06 18:06 | 41.30712 | 28.76318 | 2072 ft | 171 kts | 34° |
| 2026-05-06 18:06 | 41.31707 | 28.77210 | 2674 ft | 174 kts | 32° |
| 2026-05-06 18:07 | 41.32727 | 28.78075 | 3288 ft | 173 kts | 30° |
| 2026-05-06 18:07 | 41.33772 | 28.78933 | 3735 ft | 184 kts | 28° |
| 2026-05-06 18:07 | 41.34932 | 28.79856 | 3955 ft | 206 kts | 27° |
| 2026-05-06 18:07 | 41.36232 | 28.80874 | 4142 ft | 228 kts | 27° |
| 2026-05-06 18:08 | 41.37614 | 28.82135 | 4356 ft | 256 kts | 45° |
| 2026-05-06 18:08 | 41.38387 | 28.84327 | 4880 ft | 274 kts | 79° |
| 2026-05-06 18:08 | 41.38520 | 28.86893 | 5571 ft | 280 kts | 85° |
| 2026-05-06 18:08 | 41.38517 | 28.89505 | 6329 ft | 284 kts | 92° |
| 2026-05-06 18:09 | 41.37876 | 28.92016 | 7004 ft | 294 kts | 122° |
| 2026-05-06 18:09 | 41.36408 | 28.93921 | 7661 ft | 300 kts | 150° |
| 2026-05-06 18:09 | 41.34419 | 28.94748 | 8327 ft | 303 kts | 178° |
| 2026-05-06 18:09 | 41.32303 | 28.94807 | 9012 ft | 305 kts | 181° |
| 2026-05-06 18:10 | 41.30166 | 28.94831 | 9680 ft | 309 kts | 181° |
| 2026-05-06 18:10 | 41.27998 | 28.94853 | 10328 ft | 314 kts | 181° |
| 2026-05-06 18:10 | 41.25793 | 28.94587 | 10538 ft | 332 kts | 194° |
| 2026-05-06 18:10 | 41.23544 | 28.93579 | 10676 ft | 350 kts | 209° |
| 2026-05-06 18:11 | 41.21388 | 28.91999 | 11090 ft | 358 kts | 212° |
| 2026-05-06 18:11 | 41.19198 | 28.90389 | 11661 ft | 362 kts | 211° |
| 2026-05-06 18:11 | 41.16974 | 28.88782 | 12277 ft | 365 kts | 211° |
| 2026-05-06 18:11 | 41.14729 | 28.87176 | 12896 ft | 368 kts | 210° |
| 2026-05-06 18:12 | 41.12462 | 28.85561 | 13505 ft | 371 kts | 210° |
| 2026-05-06 18:12 | 41.10182 | 28.83934 | 14097 ft | 374 kts | 210° |
| 2026-05-06 18:12 | 41.07887 | 28.82277 | 14626 ft | 376 kts | 212° |
| 2026-05-06 18:12 | 41.05738 | 28.80299 | 15154 ft | 377 kts | 220° |
| 2026-05-06 18:13 | 41.03643 | 28.78178 | 15698 ft | 380 kts | 220° |
| 2026-05-06 18:13 | 41.01532 | 28.76050 | 16229 ft | 383 kts | 220° |
| 2026-05-06 18:13 | 40.99399 | 28.73915 | 16764 ft | 386 kts | 220° |
| 2026-05-06 18:13 | 40.97249 | 28.71775 | 17285 ft | 389 kts | 220° |
| 2026-05-06 18:14 | 40.95077 | 28.69605 | 17793 ft | 391 kts | 221° |
| 2026-05-06 18:14 | 40.93136 | 28.67166 | 18291 ft | 390 kts | 233° |
| 2026-05-06 18:14 | 40.91573 | 28.64252 | 18718 ft | 387 kts | 244° |
| 2026-05-06 18:14 | 40.90469 | 28.61017 | 19143 ft | 385 kts | 256° |
| 2026-05-06 18:15 | 40.89839 | 28.57595 | 19581 ft | 383 kts | 264° |
| 2026-05-06 18:15 | 40.89343 | 28.54117 | 20012 ft | 386 kts | 264° |
| 2026-05-06 18:15 | 40.88838 | 28.50625 | 20443 ft | 388 kts | 264° |
| 2026-05-06 18:15 | 40.88320 | 28.47106 | 20864 ft | 391 kts | 264° |
| 2026-05-06 18:16 | 40.87796 | 28.43572 | 21288 ft | 393 kts | 264° |
| 2026-05-06 18:16 | 40.87265 | 28.40018 | 21702 ft | 396 kts | 264° |
| 2026-05-06 18:16 | 40.86729 | 28.36436 | 22092 ft | 398 kts | 264° |
| 2026-05-06 18:16 | 40.86191 | 28.32838 | 22493 ft | 400 kts | 264° |
| 2026-05-06 18:17 | 40.85651 | 28.29215 | 22895 ft | 403 kts | 264° |
| 2026-05-06 18:17 | 40.85108 | 28.25582 | 23293 ft | 405 kts | 264° |
| 2026-05-06 18:17 | 40.84556 | 28.21915 | 23673 ft | 408 kts | 264° |
| 2026-05-06 18:17 | 40.84002 | 28.18231 | 24018 ft | 409 kts | 264° |
| 2026-05-06 18:18 | 40.83445 | 28.14531 | 24372 ft | 411 kts | 264° |
| 2026-05-06 18:18 | 40.82888 | 28.10827 | 24744 ft | 412 kts | 264° |
| 2026-05-06 18:18 | 40.82337 | 28.07161 | 25111 ft | 413 kts | 264° |
| 2026-05-06 18:18 | 40.81776 | 28.03435 | 25446 ft | 414 kts | 264° |
| 2026-05-06 18:19 | 40.81208 | 27.99700 | 25793 ft | 415 kts | 264° |
| 2026-05-06 18:19 | 40.80635 | 27.95952 | 26129 ft | 417 kts | 264° |
| 2026-05-06 18:19 | 40.80057 | 27.92190 | 26461 ft | 418 kts | 264° |
| 2026-05-06 18:19 | 40.79546 | 27.88409 | 26780 ft | 416 kts | 270° |
| 2026-05-06 18:20 | 40.79446 | 27.84622 | 27089 ft | 412 kts | 276° |
| 2026-05-06 18:20 | 40.79247 | 27.80813 | 27400 ft | 422 kts | 264° |
| 2026-05-06 18:20 | 40.78297 | 27.77100 | 27736 ft | 435 kts | 249° |
| 2026-05-06 18:20 | 40.76542 | 27.73782 | 28059 ft | 451 kts | 231° |
| 2026-05-06 18:21 | 40.74024 | 27.71229 | 28338 ft | 467 kts | 213° |
| 2026-05-06 18:21 | 40.70916 | 27.69811 | 28575 ft | 481 kts | 194° |
| 2026-05-06 18:21 | 40.67642 | 27.69086 | 28834 ft | 484 kts | 193° |
| 2026-05-06 18:21 | 40.64262 | 27.68380 | 29031 ft | 486 kts | 193° |
| 2026-05-06 18:22 | 40.60966 | 27.67709 | 29069 ft | 472 kts | 193° |
| 2026-05-06 18:22 | 40.57779 | 27.67061 | 29059 ft | 466 kts | 193° |
| 2026-05-06 18:22 | 40.51411 | 27.65731 | 29056 ft | 463 kts | 193° |
| 2026-05-06 18:23 | 40.45059 | 27.64368 | 29071 ft | 462 kts | 193° |
| 2026-05-06 18:23 | 40.38707 | 27.63010 | 29073 ft | 462 kts | 193° |
| 2026-05-06 18:24 | 40.32352 | 27.61657 | 29067 ft | 463 kts | 194° |
| 2026-05-06 18:24 | 40.25994 | 27.60310 | 29066 ft | 463 kts | 193° |
| 2026-05-06 18:25 | 40.20712 | 27.59203 | 29063 ft | 463 kts | 193° |
| 2026-05-06 18:25 | 40.14346 | 27.57875 | 29051 ft | 462 kts | 194° |
| 2026-05-06 18:26 | 40.06962 | 27.56324 | 29057 ft | 462 kts | 194° |
| 2026-05-06 18:26 | 40.01643 | 27.55203 | 29055 ft | 462 kts | 194° |
| 2026-05-06 18:27 | 39.95333 | 27.53884 | 29046 ft | 461 kts | 194° |
| 2026-05-06 18:27 | 39.88985 | 27.52560 | 29052 ft | 461 kts | 193° |
| 2026-05-06 18:28 | 39.82648 | 27.51241 | 29052 ft | 461 kts | 194° |
| 2026-05-06 18:28 | 39.76316 | 27.49918 | 29056 ft | 461 kts | 194° |
| 2026-05-06 18:29 | 39.69974 | 27.48593 | 29063 ft | 461 kts | 194° |
| 2026-05-06 18:29 | 39.63637 | 27.47285 | 29047 ft | 461 kts | 193° |
| 2026-05-06 18:30 | 39.57309 | 27.45986 | 29063 ft | 460 kts | 194° |
| 2026-05-06 18:30 | 39.50968 | 27.44669 | 28910 ft | 463 kts | 194° |
| 2026-05-06 18:31 | 39.47795 | 27.44013 | 28306 ft | 460 kts | 193° |
| 2026-05-06 18:31 | 39.44693 | 27.43376 | 27758 ft | 456 kts | 193° |
| 2026-05-06 18:31 | 39.41578 | 27.42738 | 27211 ft | 451 kts | 193° |
| 2026-05-06 18:31 | 39.38487 | 27.42103 | 26694 ft | 447 kts | 194° |
| 2026-05-06 18:32 | 39.35464 | 27.41162 | 26134 ft | 440 kts | 200° |
| 2026-05-06 18:32 | 39.32540 | 27.40066 | 25711 ft | 434 kts | 200° |
| 2026-05-06 18:32 | 39.29699 | 27.38998 | 25283 ft | 429 kts | 200° |
| 2026-05-06 18:32 | 39.26852 | 27.37928 | 24860 ft | 424 kts | 200° |
| 2026-05-06 18:33 | 39.24035 | 27.36870 | 24428 ft | 419 kts | 200° |
| 2026-05-06 18:33 | 39.21249 | 27.35827 | 23992 ft | 414 kts | 200° |
| 2026-05-06 18:33 | 39.18495 | 27.34795 | 23553 ft | 410 kts | 200° |
| 2026-05-06 18:33 | 39.15762 | 27.33773 | 23074 ft | 406 kts | 200° |
| 2026-05-06 18:34 | 39.13063 | 27.32766 | 22647 ft | 401 kts | 200° |
| 2026-05-06 18:34 | 39.10397 | 27.31776 | 22202 ft | 396 kts | 200° |
| 2026-05-06 18:34 | 39.07769 | 27.30802 | 21770 ft | 391 kts | 200° |
| 2026-05-06 18:34 | 39.05169 | 27.29836 | 21337 ft | 386 kts | 200° |
| 2026-05-06 18:35 | 39.02605 | 27.28889 | 20927 ft | 382 kts | 198° |
| 2026-05-06 18:35 | 39.00009 | 27.28486 | 20531 ft | 382 kts | 181° |
| 2026-05-06 18:35 | 38.97366 | 27.28585 | 20060 ft | 380 kts | 180° |
| 2026-05-06 18:35 | 38.94784 | 27.28707 | 19634 ft | 377 kts | 180° |
| 2026-05-06 18:36 | 38.92168 | 27.28840 | 19187 ft | 375 kts | 180° |
| 2026-05-06 18:36 | 38.89570 | 27.28979 | 18736 ft | 372 kts | 180° |
| 2026-05-06 18:36 | 38.86988 | 27.29114 | 18281 ft | 370 kts | 180° |
| 2026-05-06 18:36 | 38.84423 | 27.29246 | 17798 ft | 367 kts | 180° |
| 2026-05-06 18:37 | 38.81885 | 27.29373 | 17368 ft | 363 kts | 180° |
| 2026-05-06 18:37 | 38.79373 | 27.29497 | 16931 ft | 360 kts | 180° |
| 2026-05-06 18:37 | 38.76885 | 27.29620 | 16499 ft | 356 kts | 179° |
| 2026-05-06 18:37 | 38.74454 | 27.29739 | 16076 ft | 353 kts | 179° |
| 2026-05-06 18:38 | 38.72015 | 27.29857 | 15657 ft | 349 kts | 179° |
| 2026-05-06 18:38 | 38.69593 | 27.29974 | 15238 ft | 346 kts | 179° |
| 2026-05-06 18:38 | 38.67189 | 27.30091 | 14818 ft | 344 kts | 179° |
| 2026-05-06 18:38 | 38.64810 | 27.30209 | 14401 ft | 341 kts | 179° |
| 2026-05-06 18:39 | 38.62446 | 27.30326 | 14001 ft | 339 kts | 179° |
| 2026-05-06 18:39 | 38.60091 | 27.30443 | 13568 ft | 337 kts | 179° |
| 2026-05-06 18:39 | 38.57792 | 27.30557 | 13160 ft | 334 kts | 179° |
| 2026-05-06 18:40 | 38.53206 | 27.30777 | 12355 ft | 326 kts | 179° |
| 2026-05-06 18:40 | 38.50946 | 27.30887 | 11977 ft | 322 kts | 179° |
| 2026-05-06 18:40 | 38.48719 | 27.30995 | 11589 ft | 319 kts | 178° |
| 2026-05-06 18:40 | 38.46508 | 27.31104 | 11204 ft | 317 kts | 178° |
| 2026-05-06 18:41 | 38.44313 | 27.31210 | 10805 ft | 315 kts | 178° |
| 2026-05-06 18:41 | 38.42117 | 27.31318 | 10400 ft | 314 kts | 178° |
| 2026-05-06 18:41 | 38.39941 | 27.31425 | 10015 ft | 313 kts | 178° |
| 2026-05-06 18:41 | 38.37781 | 27.31528 | 9605 ft | 310 kts | 178° |
| 2026-05-06 18:42 | 38.35643 | 27.31627 | 9187 ft | 303 kts | 178° |
| 2026-05-06 18:42 | 38.33574 | 27.31724 | 8830 ft | 292 kts | 178° |
| 2026-05-06 18:42 | 38.31581 | 27.31820 | 8484 ft | 289 kts | 178° |
| 2026-05-06 18:42 | 38.29581 | 27.31916 | 8128 ft | 286 kts | 178° |
| 2026-05-06 18:43 | 38.27594 | 27.32013 | 7775 ft | 284 kts | 178° |
| 2026-05-06 18:43 | 38.25627 | 27.32111 | 7428 ft | 282 kts | 178° |
| 2026-05-06 18:43 | 38.23677 | 27.32209 | 7084 ft | 280 kts | 177° |
| 2026-05-06 18:43 | 38.21736 | 27.32307 | 6743 ft | 276 kts | 178° |
| 2026-05-06 18:44 | 38.19849 | 27.32399 | 6403 ft | 267 kts | 178° |
| 2026-05-06 18:44 | 38.18022 | 27.32488 | 6044 ft | 259 kts | 178° |
| 2026-05-06 18:44 | 38.16247 | 27.32574 | 5689 ft | 251 kts | 178° |
| 2026-05-06 18:44 | 38.14521 | 27.32656 | 5339 ft | 246 kts | 178° |
| 2026-05-06 18:45 | 38.12827 | 27.32736 | 5024 ft | 241 kts | 178° |
| 2026-05-06 18:45 | 38.11178 | 27.32814 | 4770 ft | 234 kts | 178° |
| 2026-05-06 18:45 | 38.09598 | 27.32611 | 4510 ft | 225 kts | 199° |
| 2026-05-06 18:45 | 38.08280 | 27.31665 | 4279 ft | 212 kts | 222° |
| 2026-05-06 18:46 | 38.07408 | 27.30242 | 4067 ft | 199 kts | 245° |
| 2026-05-06 18:46 | 38.06997 | 27.28597 | 4005 ft | 194 kts | 259° |
| 2026-05-06 18:46 | 38.06696 | 27.26958 | 4007 ft | 193 kts | 258° |
| 2026-05-06 18:46 | 38.06390 | 27.25300 | 3989 ft | 193 kts | 260° |
| 2026-05-06 18:47 | 38.06478 | 27.23644 | 3935 ft | 189 kts | 292° |
| 2026-05-06 18:47 | 38.07243 | 27.22319 | 3801 ft | 189 kts | 323° |
| 2026-05-06 18:47 | 38.08431 | 27.21700 | 3516 ft | 185 kts | 347° |
| 2026-05-06 18:47 | 38.09681 | 27.21340 | 3251 ft | 183 kts | 347° |
| 2026-05-06 18:48 | 38.10919 | 27.20973 | 2995 ft | 183 kts | 346° |
| 2026-05-06 18:48 | 38.12157 | 27.20604 | 2743 ft | 182 kts | 346° |
| 2026-05-06 18:48 | 38.13386 | 27.20238 | 2495 ft | 182 kts | 346° |
| 2026-05-06 18:48 | 38.14620 | 27.19871 | 2313 ft | 181 kts | 346° |
| 2026-05-06 18:49 | 38.15850 | 27.19504 | 2250 ft | 182 kts | 346° |
| 2026-05-06 18:49 | 38.17081 | 27.19134 | 2180 ft | 182 kts | 345° |
| 2026-05-06 18:49 | 38.18282 | 27.18774 | 2113 ft | 168 kts | 345° |
| 2026-05-06 18:49 | 38.19364 | 27.18450 | 2025 ft | 154 kts | 345° |
| 2026-05-06 18:50 | 38.20376 | 27.18147 | 1891 ft | 149 kts | 345° |
| 2026-05-06 18:50 | 38.21370 | 27.17843 | 1666 ft | 146 kts | 344° |
| 2026-05-06 18:50 | 38.22356 | 27.17538 | 1471 ft | 146 kts | 345° |
| 2026-05-06 18:50 | 38.23349 | 27.17259 | 1303 ft | 147 kts | 346° |
| 2026-05-06 18:51 | 38.24345 | 27.16972 | 1112 ft | 146 kts | 344° |
| 2026-05-06 18:51 | 38.25337 | 27.16665 | 931 ft | 146 kts | 343° |
| 2026-05-06 18:51 | 38.26325 | 27.16371 | 720 ft | 146 kts | 345° |
| 2026-05-06 18:51 | 38.27307 | 27.16068 | 544 ft | 145 kts | 343° |
| 2026-05-06 18:52 | 38.28282 | 27.15768 | 418 ft | 135 kts | 346° |
| 2026-05-06 18:52 | 38.29032 | 27.15541 | 417 ft | 86 kts | 347° |
| 2026-05-06 18:52 | 38.29471 | 27.15406 | 415 ft | 52 kts | 346° |
| 2026-05-06 18:52 | 38.29788 | 27.15312 | 412 ft | 41 kts | 347° |
| 2026-05-06 18:53 | 38.29961 | 27.15262 | 416 ft | 12 kts | 344° |
| 2026-05-06 18:53 | 38.29984 | 27.15188 | 417 ft | 12 kts | 258° |
| 2026-05-06 18:53 | 38.29960 | 27.15062 | 411 ft | 17 kts | 256° |
| 2026-05-06 18:53 | 38.29925 | 27.14964 | 410 ft | 10 kts | 199° |
| 2026-05-06 18:54 | 38.29854 | 27.14976 | 411 ft | 11 kts | 166° |
| 2026-05-06 18:54 | 38.29773 | 27.15001 | 411 ft | 13 kts | 167° |
| 2026-05-06 18:54 | 38.29681 | 27.15028 | 411 ft | 14 kts | 167° |
| 2026-05-06 18:54 | 38.29579 | 27.15059 | 410 ft | 16 kts | 166° |
| 2026-05-06 18:55 | 38.29485 | 27.15087 | 411 ft | 13 kts | 166° |
| 2026-05-06 18:55 | 38.29392 | 27.15115 | 410 ft | 14 kts | 167° |
| 2026-05-06 18:55 | 38.29290 | 27.15147 | 411 ft | 16 kts | 166° |
| 2026-05-06 18:55 | 38.29224 | 27.15151 | 411 ft | 8 kts | 210° |
| 2026-05-06 18:56 | 38.29202 | 27.15093 | 411 ft | 4 kts | 256° |
| 2026-05-06 18:56 | 38.29199 | 27.15077 | 409 ft | 0 kts | 256° |